sensor_id;sensor_type;location;lat;lon;timestamp;P1;durP1;ratioP1;P2;durP2;ratioP2
7158;SDS011;63175;52.374;13.132;2023-05-10T00:01:10;4.93;;;3.97;;
7158;SDS011;63175;52.374;13.132;2023-05-10T00:03:37;5.10;;;3.83;;
7158;SDS011;63175;52.374;13.132;2023-05-10T00:06:04;7.63;;;4.10;;
7158;SDS011;63175;52.374;13.132;2023-05-10T00:08:31;4.53;;;4.00;;
7158;SDS011;63175;52.374;13.132;2023-05-10T00:11:00;3.90;;;3.60;;
7158;SDS011;63175;52.374;13.132;2023-05-10T00:13:27;5.30;;;4.13;;
7158;SDS011;63175;52.374;13.132;2023-05-10T00:15:53;5.90;;;4.03;;
7158;SDS011;63175;52.374;13.132;2023-05-10T00:18:20;4.10;;;3.70;;
7158;SDS011;63175;52.374;13.132;2023-05-10T00:20:47;4.53;;;4.13;;
7158;SDS011;63175;52.374;13.132;2023-05-10T00:23:14;5.13;;;3.90;;
7158;SDS011;63175;52.374;13.132;2023-05-10T00:25:41;5.00;;;4.07;;
7158;SDS011;63175;52.374;13.132;2023-05-10T00:28:10;4.93;;;4.43;;
7158;SDS011;63175;52.374;13.132;2023-05-10T00:30:36;10.90;;;4.00;;
7158;SDS011;63175;52.374;13.132;2023-05-10T00:33:03;10.10;;;3.93;;
7158;SDS011;63175;52.374;13.132;2023-05-10T00:35:30;3.67;;;3.37;;
7158;SDS011;63175;52.374;13.132;2023-05-10T00:37:57;6.10;;;5.03;;
7158;SDS011;63175;52.374;13.132;2023-05-10T00:40:24;8.50;;;5.80;;
7158;SDS011;63175;52.374;13.132;2023-05-10T00:42:51;6.10;;;4.53;;
7158;SDS011;63175;52.374;13.132;2023-05-10T00:45:19;5.87;;;4.20;;
7158;SDS011;63175;52.374;13.132;2023-05-10T00:47:46;4.63;;;4.23;;
7158;SDS011;63175;52.374;13.132;2023-05-10T00:50:13;4.63;;;4.10;;
7158;SDS011;63175;52.374;13.132;2023-05-10T00:52:40;6.60;;;4.10;;
7158;SDS011;63175;52.374;13.132;2023-05-10T00:55:09;8.23;;;3.93;;
7158;SDS011;63175;52.374;13.132;2023-05-10T00:57:37;4.63;;;4.30;;
7158;SDS011;63175;52.374;13.132;2023-05-10T01:00:05;5.80;;;4.30;;
7158;SDS011;63175;52.374;13.132;2023-05-10T01:02:34;5.77;;;4.00;;
7158;SDS011;63175;52.374;13.132;2023-05-10T01:05:01;4.67;;;4.20;;
7158;SDS011;63175;52.374;13.132;2023-05-10T01:07:30;4.50;;;3.93;;
7158;SDS011;63175;52.374;13.132;2023-05-10T01:09:56;6.70;;;4.60;;
7158;SDS011;63175;52.374;13.132;2023-05-10T01:12:24;5.63;;;4.43;;
7158;SDS011;63175;52.374;13.132;2023-05-10T01:14:51;6.80;;;4.70;;
7158;SDS011;63175;52.374;13.132;2023-05-10T01:17:18;4.97;;;4.57;;
7158;SDS011;63175;52.374;13.132;2023-05-10T01:19:47;5.73;;;4.57;;
7158;SDS011;63175;52.374;13.132;2023-05-10T01:22:20;4.20;;;3.90;;
7158;SDS011;63175;52.374;13.132;2023-05-10T01:25:18;6.60;;;4.60;;
7158;SDS011;63175;52.374;13.132;2023-05-10T01:28:15;5.60;;;5.10;;
7158;SDS011;63175;52.374;13.132;2023-05-10T01:31:06;7.10;;;5.60;;
7158;SDS011;63175;52.374;13.132;2023-05-10T01:33:44;6.07;;;4.37;;
7158;SDS011;63175;52.374;13.132;2023-05-10T01:36:19;6.27;;;4.10;;
7158;SDS011;63175;52.374;13.132;2023-05-10T01:38:56;3.97;;;3.67;;
7158;SDS011;63175;52.374;13.132;2023-05-10T01:41:30;4.93;;;4.43;;
7158;SDS011;63175;52.374;13.132;2023-05-10T01:44:09;4.00;;;3.60;;
7158;SDS011;63175;52.374;13.132;2023-05-10T01:46:42;7.43;;;3.80;;
7158;SDS011;63175;52.374;13.132;2023-05-10T01:49:15;4.63;;;4.13;;
7158;SDS011;63175;52.374;13.132;2023-05-10T01:51:49;4.20;;;3.80;;
7158;SDS011;63175;52.374;13.132;2023-05-10T01:54:20;4.90;;;3.90;;
7158;SDS011;63175;52.374;13.132;2023-05-10T01:56:50;4.97;;;4.47;;
7158;SDS011;63175;52.374;13.132;2023-05-10T01:59:22;8.13;;;4.10;;
7158;SDS011;63175;52.374;13.132;2023-05-10T02:01:54;8.50;;;6.07;;
7158;SDS011;63175;52.374;13.132;2023-05-10T02:04:25;7.13;;;6.40;;
7158;SDS011;63175;52.374;13.132;2023-05-10T02:06:53;7.30;;;6.03;;
7158;SDS011;63175;52.374;13.132;2023-05-10T02:09:21;5.20;;;4.70;;
7158;SDS011;63175;52.374;13.132;2023-05-10T02:11:49;5.00;;;4.50;;
7158;SDS011;63175;52.374;13.132;2023-05-10T02:14:16;8.20;;;5.17;;
7158;SDS011;63175;52.374;13.132;2023-05-10T02:16:45;6.90;;;5.20;;
7158;SDS011;63175;52.374;13.132;2023-05-10T02:19:13;5.50;;;4.93;;
7158;SDS011;63175;52.374;13.132;2023-05-10T02:21:42;6.70;;;4.67;;
7158;SDS011;63175;52.374;13.132;2023-05-10T02:24:11;5.97;;;3.97;;
7158;SDS011;63175;52.374;13.132;2023-05-10T02:26:39;4.80;;;4.10;;
7158;SDS011;63175;52.374;13.132;2023-05-10T02:29:08;8.90;;;5.93;;
7158;SDS011;63175;52.374;13.132;2023-05-10T02:31:37;10.40;;;7.30;;
7158;SDS011;63175;52.374;13.132;2023-05-10T02:34:05;17.57;;;6.70;;
7158;SDS011;63175;52.374;13.132;2023-05-10T02:36:33;6.07;;;5.47;;
7158;SDS011;63175;52.374;13.132;2023-05-10T02:39:03;6.13;;;5.13;;
7158;SDS011;63175;52.374;13.132;2023-05-10T02:41:34;4.90;;;4.40;;
7158;SDS011;63175;52.374;13.132;2023-05-10T02:44:02;6.17;;;5.57;;
7158;SDS011;63175;52.374;13.132;2023-05-10T02:46:32;6.47;;;5.47;;
7158;SDS011;63175;52.374;13.132;2023-05-10T02:48:59;5.17;;;4.57;;
7158;SDS011;63175;52.374;13.132;2023-05-10T02:51:28;7.77;;;5.10;;
7158;SDS011;63175;52.374;13.132;2023-05-10T02:53:59;10.33;;;4.50;;
7158;SDS011;63175;52.374;13.132;2023-05-10T02:56:33;7.53;;;5.17;;
7158;SDS011;63175;52.374;13.132;2023-05-10T02:59:02;4.63;;;4.23;;
7158;SDS011;63175;52.374;13.132;2023-05-10T03:01:29;5.20;;;4.63;;
7158;SDS011;63175;52.374;13.132;2023-05-10T03:03:56;8.97;;;5.27;;
7158;SDS011;63175;52.374;13.132;2023-05-10T03:06:23;6.43;;;5.73;;
7158;SDS011;63175;52.374;13.132;2023-05-10T03:08:49;6.53;;;5.57;;
7158;SDS011;63175;52.374;13.132;2023-05-10T03:11:22;6.37;;;5.73;;
7158;SDS011;63175;52.374;13.132;2023-05-10T03:14:01;6.07;;;5.47;;
7158;SDS011;63175;52.374;13.132;2023-05-10T03:16:39;5.50;;;5.00;;
7158;SDS011;63175;52.374;13.132;2023-05-10T03:19:12;5.53;;;5.00;;
7158;SDS011;63175;52.374;13.132;2023-05-10T03:21:45;6.13;;;4.90;;
7158;SDS011;63175;52.374;13.132;2023-05-10T03:24:16;12.03;;;5.43;;
7158;SDS011;63175;52.374;13.132;2023-05-10T03:26:47;6.00;;;4.97;;
7158;SDS011;63175;52.374;13.132;2023-05-10T03:29:16;8.20;;;6.40;;
7158;SDS011;63175;52.374;13.132;2023-05-10T03:31:44;5.53;;;4.67;;
7158;SDS011;63175;52.374;13.132;2023-05-10T03:34:11;5.43;;;4.83;;
7158;SDS011;63175;52.374;13.132;2023-05-10T03:36:37;5.60;;;5.10;;
7158;SDS011;63175;52.374;13.132;2023-05-10T03:39:04;7.33;;;4.73;;
7158;SDS011;63175;52.374;13.132;2023-05-10T03:41:31;7.87;;;5.07;;
7158;SDS011;63175;52.374;13.132;2023-05-10T03:43:59;5.60;;;5.00;;
7158;SDS011;63175;52.374;13.132;2023-05-10T03:46:26;7.10;;;4.40;;
7158;SDS011;63175;52.374;13.132;2023-05-10T03:48:53;7.33;;;5.23;;
7158;SDS011;63175;52.374;13.132;2023-05-10T03:51:20;5.60;;;5.10;;
7158;SDS011;63175;52.374;13.132;2023-05-10T03:53:47;6.03;;;4.07;;
7158;SDS011;63175;52.374;13.132;2023-05-10T03:56:14;4.50;;;4.10;;
7158;SDS011;63175;52.374;13.132;2023-05-10T03:58:40;4.90;;;4.33;;
7158;SDS011;63175;52.374;13.132;2023-05-10T04:01:09;4.73;;;4.20;;
7158;SDS011;63175;52.374;13.132;2023-05-10T04:03:36;5.73;;;4.50;;
7158;SDS011;63175;52.374;13.132;2023-05-10T04:06:03;6.10;;;4.27;;
7158;SDS011;63175;52.374;13.132;2023-05-10T04:08:31;4.80;;;4.40;;
7158;SDS011;63175;52.374;13.132;2023-05-10T04:11:04;5.57;;;5.00;;
7158;SDS011;63175;52.374;13.132;2023-05-10T04:13:32;4.10;;;3.70;;
7158;SDS011;63175;52.374;13.132;2023-05-10T04:15:59;5.73;;;4.50;;
7158;SDS011;63175;52.374;13.132;2023-05-10T04:18:27;5.27;;;4.47;;
7158;SDS011;63175;52.374;13.132;2023-05-10T04:20:54;5.20;;;4.70;;
7158;SDS011;63175;52.374;13.132;2023-05-10T04:23:21;4.20;;;3.80;;
7158;SDS011;63175;52.374;13.132;2023-05-10T04:25:48;4.83;;;4.33;;
7158;SDS011;63175;52.374;13.132;2023-05-10T04:28:15;7.33;;;4.40;;
7158;SDS011;63175;52.374;13.132;2023-05-10T04:30:42;4.57;;;4.10;;
7158;SDS011;63175;52.374;13.132;2023-05-10T04:33:12;10.73;;;4.60;;
7158;SDS011;63175;52.374;13.132;2023-05-10T04:35:40;6.20;;;4.70;;
7158;SDS011;63175;52.374;13.132;2023-05-10T04:38:07;6.17;;;4.20;;
7158;SDS011;63175;52.374;13.132;2023-05-10T04:40:34;9.03;;;3.77;;
7158;SDS011;63175;52.374;13.132;2023-05-10T04:43:01;4.23;;;3.93;;
7158;SDS011;63175;52.374;13.132;2023-05-10T04:45:28;6.63;;;4.30;;
7158;SDS011;63175;52.374;13.132;2023-05-10T04:47:57;5.27;;;4.50;;
7158;SDS011;63175;52.374;13.132;2023-05-10T04:50:25;5.00;;;4.50;;
7158;SDS011;63175;52.374;13.132;2023-05-10T04:52:53;10.73;;;4.33;;
7158;SDS011;63175;52.374;13.132;2023-05-10T04:55:20;5.93;;;3.93;;
7158;SDS011;63175;52.374;13.132;2023-05-10T04:57:49;4.03;;;3.73;;
7158;SDS011;63175;52.374;13.132;2023-05-10T05:00:16;4.50;;;4.10;;
7158;SDS011;63175;52.374;13.132;2023-05-10T05:02:43;4.90;;;3.93;;
7158;SDS011;63175;52.374;13.132;2023-05-10T05:05:10;8.37;;;3.63;;
7158;SDS011;63175;52.374;13.132;2023-05-10T05:07:37;4.70;;;3.90;;
7158;SDS011;63175;52.374;13.132;2023-05-10T05:10:06;5.47;;;4.60;;
7158;SDS011;63175;52.374;13.132;2023-05-10T05:12:34;3.80;;;3.47;;
7158;SDS011;63175;52.374;13.132;2023-05-10T05:15:01;4.73;;;3.93;;
7158;SDS011;63175;52.374;13.132;2023-05-10T05:17:29;3.70;;;3.40;;
7158;SDS011;63175;52.374;13.132;2023-05-10T05:19:56;4.70;;;3.90;;
7158;SDS011;63175;52.374;13.132;2023-05-10T05:22:23;5.80;;;3.30;;
7158;SDS011;63175;52.374;13.132;2023-05-10T05:24:52;4.80;;;3.87;;
7158;SDS011;63175;52.374;13.132;2023-05-10T05:27:21;3.83;;;3.53;;
7158;SDS011;63175;52.374;13.132;2023-05-10T05:29:49;6.27;;;3.60;;
7158;SDS011;63175;52.374;13.132;2023-05-10T05:32:16;6.10;;;4.23;;
7158;SDS011;63175;52.374;13.132;2023-05-10T05:34:43;4.07;;;3.67;;
7158;SDS011;63175;52.374;13.132;2023-05-10T05:37:12;4.90;;;3.70;;
7158;SDS011;63175;52.374;13.132;2023-05-10T05:39:39;5.73;;;3.77;;
7158;SDS011;63175;52.374;13.132;2023-05-10T05:42:06;5.20;;;4.00;;
7158;SDS011;63175;52.374;13.132;2023-05-10T05:44:34;4.60;;;3.47;;
7158;SDS011;63175;52.374;13.132;2023-05-10T05:47:01;3.77;;;3.47;;
7158;SDS011;63175;52.374;13.132;2023-05-10T05:49:28;3.33;;;3.07;;
7158;SDS011;63175;52.374;13.132;2023-05-10T05:51:58;4.07;;;3.67;;
7158;SDS011;63175;52.374;13.132;2023-05-10T05:54:25;3.83;;;3.30;;
7158;SDS011;63175;52.374;13.132;2023-05-10T05:56:53;3.80;;;3.50;;
7158;SDS011;63175;52.374;13.132;2023-05-10T05:59:21;3.53;;;3.23;;
7158;SDS011;63175;52.374;13.132;2023-05-10T06:01:50;3.40;;;3.00;;
7158;SDS011;63175;52.374;13.132;2023-05-10T06:04:17;3.90;;;3.17;;
7158;SDS011;63175;52.374;13.132;2023-05-10T06:06:45;3.60;;;3.07;;
7158;SDS011;63175;52.374;13.132;2023-05-10T06:09:12;3.80;;;3.50;;
7158;SDS011;63175;52.374;13.132;2023-05-10T06:11:39;7.40;;;2.90;;
7158;SDS011;63175;52.374;13.132;2023-05-10T06:14:06;3.20;;;3.00;;
7158;SDS011;63175;52.374;13.132;2023-05-10T06:16:33;4.13;;;3.70;;
7158;SDS011;63175;52.374;13.132;2023-05-10T06:19:01;6.47;;;4.30;;
7158;SDS011;63175;52.374;13.132;2023-05-10T06:21:28;4.03;;;3.00;;
7158;SDS011;63175;52.374;13.132;2023-05-10T06:23:55;10.50;;;3.53;;
7158;SDS011;63175;52.374;13.132;2023-05-10T06:26:22;3.83;;;3.23;;
7158;SDS011;63175;52.374;13.132;2023-05-10T06:28:49;3.07;;;2.80;;
7158;SDS011;63175;52.374;13.132;2023-05-10T06:31:16;4.03;;;3.07;;
7158;SDS011;63175;52.374;13.132;2023-05-10T06:33:43;5.27;;;3.00;;
7158;SDS011;63175;52.374;13.132;2023-05-10T06:36:11;2.97;;;2.63;;
7158;SDS011;63175;52.374;13.132;2023-05-10T06:38:39;3.37;;;3.07;;
7158;SDS011;63175;52.374;13.132;2023-05-10T06:41:05;5.07;;;2.90;;
7158;SDS011;63175;52.374;13.132;2023-05-10T06:43:33;4.77;;;3.90;;
7158;SDS011;63175;52.374;13.132;2023-05-10T06:46:00;4.60;;;2.73;;
7158;SDS011;63175;52.374;13.132;2023-05-10T06:48:27;3.33;;;2.67;;
7158;SDS011;63175;52.374;13.132;2023-05-10T06:50:54;3.70;;;2.93;;
7158;SDS011;63175;52.374;13.132;2023-05-10T06:53:22;3.30;;;2.77;;
7158;SDS011;63175;52.374;13.132;2023-05-10T06:55:49;4.23;;;2.70;;
7158;SDS011;63175;52.374;13.132;2023-05-10T06:58:15;3.30;;;3.03;;
7158;SDS011;63175;52.374;13.132;2023-05-10T07:00:42;3.13;;;2.93;;
7158;SDS011;63175;52.374;13.132;2023-05-10T07:03:10;2.73;;;2.50;;
7158;SDS011;63175;52.374;13.132;2023-05-10T07:05:37;3.80;;;3.20;;
7158;SDS011;63175;52.374;13.132;2023-05-10T07:08:04;3.57;;;2.03;;
7158;SDS011;63175;52.374;13.132;2023-05-10T07:10:33;6.03;;;3.37;;
7158;SDS011;63175;52.374;13.132;2023-05-10T07:12:59;2.87;;;2.57;;
7158;SDS011;63175;52.374;13.132;2023-05-10T07:15:26;4.77;;;3.10;;
7158;SDS011;63175;52.374;13.132;2023-05-10T07:17:53;3.40;;;3.10;;
7158;SDS011;63175;52.374;13.132;2023-05-10T07:20:20;7.00;;;2.53;;
7158;SDS011;63175;52.374;13.132;2023-05-10T07:22:47;3.97;;;2.70;;
7158;SDS011;63175;52.374;13.132;2023-05-10T07:25:14;3.23;;;2.87;;
7158;SDS011;63175;52.374;13.132;2023-05-10T07:27:42;3.60;;;2.73;;
7158;SDS011;63175;52.374;13.132;2023-05-10T07:30:09;3.23;;;2.90;;
7158;SDS011;63175;52.374;13.132;2023-05-10T07:32:36;3.40;;;3.10;;
7158;SDS011;63175;52.374;13.132;2023-05-10T07:35:04;6.07;;;3.23;;
7158;SDS011;63175;52.374;13.132;2023-05-10T07:37:31;3.93;;;3.10;;
7158;SDS011;63175;52.374;13.132;2023-05-10T07:39:58;3.90;;;2.40;;
7158;SDS011;63175;52.374;13.132;2023-05-10T07:42:25;3.87;;;3.40;;
7158;SDS011;63175;52.374;13.132;2023-05-10T07:44:53;6.20;;;3.87;;
7158;SDS011;63175;52.374;13.132;2023-05-10T07:47:20;3.17;;;2.90;;
7158;SDS011;63175;52.374;13.132;2023-05-10T07:49:48;7.93;;;2.70;;
7158;SDS011;63175;52.374;13.132;2023-05-10T07:52:15;3.47;;;3.17;;
7158;SDS011;63175;52.374;13.132;2023-05-10T07:54:42;3.37;;;2.40;;
7158;SDS011;63175;52.374;13.132;2023-05-10T07:57:09;7.27;;;3.10;;
7158;SDS011;63175;52.374;13.132;2023-05-10T07:59:36;3.40;;;3.10;;
7158;SDS011;63175;52.374;13.132;2023-05-10T08:02:04;8.13;;;3.13;;
7158;SDS011;63175;52.374;13.132;2023-05-10T08:04:32;4.10;;;2.60;;
7158;SDS011;63175;52.374;13.132;2023-05-10T08:06:58;4.40;;;3.10;;
7158;SDS011;63175;52.374;13.132;2023-05-10T08:09:25;3.40;;;3.10;;
7158;SDS011;63175;52.374;13.132;2023-05-10T08:11:52;4.17;;;3.70;;
7158;SDS011;63175;52.374;13.132;2023-05-10T08:14:19;6.50;;;3.57;;
7158;SDS011;63175;52.374;13.132;2023-05-10T08:16:46;9.77;;;2.70;;
7158;SDS011;63175;52.374;13.132;2023-05-10T08:19:14;3.60;;;3.30;;
7158;SDS011;63175;52.374;13.132;2023-05-10T08:21:44;4.33;;;3.20;;
7158;SDS011;63175;52.374;13.132;2023-05-10T08:24:10;3.47;;;3.07;;
7158;SDS011;63175;52.374;13.132;2023-05-10T08:26:37;3.10;;;2.80;;
7158;SDS011;63175;52.374;13.132;2023-05-10T08:29:04;3.80;;;2.27;;
7158;SDS011;63175;52.374;13.132;2023-05-10T08:31:31;4.03;;;3.00;;
7158;SDS011;63175;52.374;13.132;2023-05-10T08:33:58;4.60;;;3.00;;
7158;SDS011;63175;52.374;13.132;2023-05-10T08:36:26;2.60;;;2.40;;
7158;SDS011;63175;52.374;13.132;2023-05-10T08:38:54;3.23;;;2.93;;
7158;SDS011;63175;52.374;13.132;2023-05-10T08:41:20;3.13;;;2.83;;
7158;SDS011;63175;52.374;13.132;2023-05-10T08:43:49;2.80;;;2.50;;
7158;SDS011;63175;52.374;13.132;2023-05-10T08:46:17;3.37;;;3.07;;
7158;SDS011;63175;52.374;13.132;2023-05-10T08:48:45;5.53;;;3.30;;
7158;SDS011;63175;52.374;13.132;2023-05-10T08:51:13;8.50;;;2.50;;
7158;SDS011;63175;52.374;13.132;2023-05-10T08:53:44;7.53;;;3.57;;
7158;SDS011;63175;52.374;13.132;2023-05-10T08:56:11;4.57;;;3.50;;
7158;SDS011;63175;52.374;13.132;2023-05-10T08:58:38;3.20;;;3.00;;
7158;SDS011;63175;52.374;13.132;2023-05-10T09:01:05;3.53;;;2.70;;
7158;SDS011;63175;52.374;13.132;2023-05-10T09:03:33;3.27;;;2.93;;
7158;SDS011;63175;52.374;13.132;2023-05-10T09:06:01;2.90;;;2.47;;
7158;SDS011;63175;52.374;13.132;2023-05-10T09:08:28;5.67;;;3.40;;
7158;SDS011;63175;52.374;13.132;2023-05-10T09:10:57;3.10;;;2.83;;
7158;SDS011;63175;52.374;13.132;2023-05-10T09:13:25;3.23;;;2.80;;
7158;SDS011;63175;52.374;13.132;2023-05-10T09:15:52;2.40;;;2.30;;
7158;SDS011;63175;52.374;13.132;2023-05-10T09:18:19;4.50;;;2.73;;
7158;SDS011;63175;52.374;13.132;2023-05-10T09:20:46;6.63;;;2.87;;
7158;SDS011;63175;52.374;13.132;2023-05-10T09:23:13;2.70;;;2.50;;
7158;SDS011;63175;52.374;13.132;2023-05-10T09:25:41;2.40;;;2.07;;
7158;SDS011;63175;52.374;13.132;2023-05-10T09:28:09;3.23;;;2.50;;
7158;SDS011;63175;52.374;13.132;2023-05-10T09:30:37;3.07;;;2.60;;
7158;SDS011;63175;52.374;13.132;2023-05-10T09:33:04;3.33;;;3.00;;
7158;SDS011;63175;52.374;13.132;2023-05-10T09:35:31;3.90;;;2.67;;
7158;SDS011;63175;52.374;13.132;2023-05-10T09:37:59;3.93;;;2.77;;
7158;SDS011;63175;52.374;13.132;2023-05-10T09:40:27;5.10;;;2.80;;
7158;SDS011;63175;52.374;13.132;2023-05-10T09:42:55;5.87;;;2.03;;
7158;SDS011;63175;52.374;13.132;2023-05-10T09:45:25;6.10;;;2.17;;
7158;SDS011;63175;52.374;13.132;2023-05-10T09:47:52;2.40;;;2.20;;
7158;SDS011;63175;52.374;13.132;2023-05-10T09:50:20;2.60;;;2.40;;
7158;SDS011;63175;52.374;13.132;2023-05-10T09:52:48;3.53;;;3.00;;
7158;SDS011;63175;52.374;13.132;2023-05-10T09:55:17;5.53;;;2.10;;
7158;SDS011;63175;52.374;13.132;2023-05-10T09:57:46;2.60;;;2.13;;
7158;SDS011;63175;52.374;13.132;2023-05-10T10:00:17;2.77;;;2.53;;
7158;SDS011;63175;52.374;13.132;2023-05-10T10:02:46;2.73;;;2.53;;
7158;SDS011;63175;52.374;13.132;2023-05-10T10:05:14;10.53;;;3.50;;
7158;SDS011;63175;52.374;13.132;2023-05-10T10:07:41;3.33;;;2.20;;
7158;SDS011;63175;52.374;13.132;2023-05-10T10:10:09;7.63;;;2.80;;
7158;SDS011;63175;52.374;13.132;2023-05-10T10:12:38;2.47;;;2.27;;
7158;SDS011;63175;52.374;13.132;2023-05-10T10:15:07;3.40;;;2.33;;
7158;SDS011;63175;52.374;13.132;2023-05-10T10:17:35;3.10;;;2.23;;
7158;SDS011;63175;52.374;13.132;2023-05-10T10:20:06;2.73;;;2.50;;
7158;SDS011;63175;52.374;13.132;2023-05-10T10:22:33;2.63;;;2.03;;
7158;SDS011;63175;52.374;13.132;2023-05-10T10:25:00;11.27;;;2.93;;
7158;SDS011;63175;52.374;13.132;2023-05-10T10:27:32;2.17;;;2.07;;
7158;SDS011;63175;52.374;13.132;2023-05-10T10:30:08;3.70;;;2.43;;
7158;SDS011;63175;52.374;13.132;2023-05-10T10:32:47;2.13;;;2.00;;
7158;SDS011;63175;52.374;13.132;2023-05-10T10:35:34;5.50;;;2.10;;
7158;SDS011;63175;52.374;13.132;2023-05-10T10:38:02;2.20;;;2.10;;
7158;SDS011;63175;52.374;13.132;2023-05-10T10:40:29;2.30;;;2.10;;
7158;SDS011;63175;52.374;13.132;2023-05-10T10:42:57;8.60;;;2.33;;
7158;SDS011;63175;52.374;13.132;2023-05-10T10:45:47;3.43;;;2.20;;
7158;SDS011;63175;52.374;13.132;2023-05-10T10:48:34;2.40;;;2.00;;
7158;SDS011;63175;52.374;13.132;2023-05-10T10:51:03;4.00;;;1.90;;
7158;SDS011;63175;52.374;13.132;2023-05-10T10:53:30;3.93;;;2.43;;
7158;SDS011;63175;52.374;13.132;2023-05-10T10:56:06;1.80;;;1.70;;
7158;SDS011;63175;52.374;13.132;2023-05-10T10:58:35;3.87;;;2.30;;
7158;SDS011;63175;52.374;13.132;2023-05-10T11:01:10;2.60;;;2.40;;
7158;SDS011;63175;52.374;13.132;2023-05-10T11:03:38;4.10;;;2.27;;
7158;SDS011;63175;52.374;13.132;2023-05-10T11:06:06;1.97;;;1.87;;
7158;SDS011;63175;52.374;13.132;2023-05-10T11:08:34;5.40;;;2.10;;
7158;SDS011;63175;52.374;13.132;2023-05-10T11:11:08;2.23;;;1.90;;
7158;SDS011;63175;52.374;13.132;2023-05-10T11:13:39;2.47;;;2.27;;
7158;SDS011;63175;52.374;13.132;2023-05-10T11:16:14;5.23;;;2.60;;
7158;SDS011;63175;52.374;13.132;2023-05-10T11:21:44;1.87;;;1.77;;
7158;SDS011;63175;52.374;13.132;2023-05-10T11:24:14;2.30;;;1.90;;
7158;SDS011;63175;52.374;13.132;2023-05-10T11:26:41;1.87;;;1.77;;
7158;SDS011;63175;52.374;13.132;2023-05-10T11:29:09;2.40;;;2.20;;
7158;SDS011;63175;52.374;13.132;2023-05-10T11:31:41;2.40;;;1.60;;
7158;SDS011;63175;52.374;13.132;2023-05-10T11:34:10;2.43;;;2.00;;
7158;SDS011;63175;52.374;13.132;2023-05-10T11:36:39;2.80;;;1.70;;
7158;SDS011;63175;52.374;13.132;2023-05-10T11:39:05;2.80;;;2.60;;
7158;SDS011;63175;52.374;13.132;2023-05-10T11:41:32;2.20;;;2.10;;
7158;SDS011;63175;52.374;13.132;2023-05-10T11:43:59;5.23;;;2.30;;
7158;SDS011;63175;52.374;13.132;2023-05-10T11:46:27;4.50;;;1.97;;
7158;SDS011;63175;52.374;13.132;2023-05-10T11:48:55;2.67;;;1.77;;
7158;SDS011;63175;52.374;13.132;2023-05-10T11:51:25;2.17;;;1.70;;
7158;SDS011;63175;52.374;13.132;2023-05-10T11:53:55;1.93;;;1.80;;
7158;SDS011;63175;52.374;13.132;2023-05-10T11:56:22;3.50;;;1.63;;
7158;SDS011;63175;52.374;13.132;2023-05-10T11:58:54;2.53;;;1.93;;
7158;SDS011;63175;52.374;13.132;2023-05-10T12:01:22;2.90;;;1.77;;
7158;SDS011;63175;52.374;13.132;2023-05-10T12:03:50;2.10;;;2.00;;
7158;SDS011;63175;52.374;13.132;2023-05-10T12:06:18;2.30;;;1.90;;
7158;SDS011;63175;52.374;13.132;2023-05-10T12:08:47;2.83;;;2.07;;
7158;SDS011;63175;52.374;13.132;2023-05-10T12:11:19;3.17;;;2.87;;
7158;SDS011;63175;52.374;13.132;2023-05-10T12:13:47;2.10;;;1.90;;
7158;SDS011;63175;52.374;13.132;2023-05-10T12:16:15;7.17;;;2.57;;
7158;SDS011;63175;52.374;13.132;2023-05-10T12:18:44;1.90;;;1.60;;
7158;SDS011;63175;52.374;13.132;2023-05-10T12:21:11;3.37;;;2.10;;
7158;SDS011;63175;52.374;13.132;2023-05-10T12:23:38;4.40;;;1.77;;
7158;SDS011;63175;52.374;13.132;2023-05-10T12:26:06;1.80;;;1.70;;
7158;SDS011;63175;52.374;13.132;2023-05-10T12:28:36;3.77;;;2.10;;
7158;SDS011;63175;52.374;13.132;2023-05-10T12:31:05;2.00;;;1.90;;
7158;SDS011;63175;52.374;13.132;2023-05-10T12:33:36;2.50;;;2.30;;
7158;SDS011;63175;52.374;13.132;2023-05-10T12:36:06;2.30;;;2.20;;
7158;SDS011;63175;52.374;13.132;2023-05-10T12:38:35;4.07;;;2.13;;
7158;SDS011;63175;52.374;13.132;2023-05-10T12:41:04;1.97;;;1.87;;
7158;SDS011;63175;52.374;13.132;2023-05-10T12:43:32;2.00;;;1.90;;
7158;SDS011;63175;52.374;13.132;2023-05-10T12:46:05;1.57;;;1.47;;
7158;SDS011;63175;52.374;13.132;2023-05-10T12:48:32;1.80;;;1.70;;
7158;SDS011;63175;52.374;13.132;2023-05-10T12:51:00;2.77;;;2.60;;
7158;SDS011;63175;52.374;13.132;2023-05-10T12:53:27;8.43;;;2.20;;
7158;SDS011;63175;52.374;13.132;2023-05-10T12:55:53;2.97;;;1.90;;
7158;SDS011;63175;52.374;13.132;2023-05-10T12:58:20;1.90;;;1.80;;
7158;SDS011;63175;52.374;13.132;2023-05-10T13:00:47;1.90;;;1.47;;
7158;SDS011;63175;52.374;13.132;2023-05-10T13:03:15;1.50;;;1.40;;
7158;SDS011;63175;52.374;13.132;2023-05-10T13:05:42;2.10;;;1.90;;
7158;SDS011;63175;52.374;13.132;2023-05-10T13:08:09;3.30;;;2.37;;
7158;SDS011;63175;52.374;13.132;2023-05-10T13:10:36;4.07;;;2.03;;
7158;SDS011;63175;52.374;13.132;2023-05-10T13:13:03;3.70;;;2.37;;
7158;SDS011;63175;52.374;13.132;2023-05-10T13:15:30;1.80;;;1.70;;
7158;SDS011;63175;52.374;13.132;2023-05-10T13:17:57;2.30;;;1.93;;
7158;SDS011;63175;52.374;13.132;2023-05-10T13:20:25;11.50;;;2.07;;
7158;SDS011;63175;52.374;13.132;2023-05-10T13:22:52;2.10;;;1.90;;
7158;SDS011;63175;52.374;13.132;2023-05-10T13:25:19;2.40;;;2.20;;
7158;SDS011;63175;52.374;13.132;2023-05-10T13:27:46;3.40;;;2.30;;
7158;SDS011;63175;52.374;13.132;2023-05-10T13:30:13;2.43;;;2.10;;
7158;SDS011;63175;52.374;13.132;2023-05-10T13:32:40;4.63;;;2.30;;
7158;SDS011;63175;52.374;13.132;2023-05-10T13:35:07;10.10;;;2.70;;
7158;SDS011;63175;52.374;13.132;2023-05-10T13:37:36;3.60;;;1.83;;
7158;SDS011;63175;52.374;13.132;2023-05-10T13:40:03;3.27;;;1.90;;
7158;SDS011;63175;52.374;13.132;2023-05-10T13:42:31;2.00;;;1.90;;
7158;SDS011;63175;52.374;13.132;2023-05-10T13:44:58;2.03;;;1.93;;
7158;SDS011;63175;52.374;13.132;2023-05-10T13:47:26;2.17;;;2.07;;
7158;SDS011;63175;52.374;13.132;2023-05-10T13:49:53;1.90;;;1.80;;
7158;SDS011;63175;52.374;13.132;2023-05-10T13:52:19;1.93;;;1.83;;
7158;SDS011;63175;52.374;13.132;2023-05-10T13:54:48;1.90;;;1.80;;
7158;SDS011;63175;52.374;13.132;2023-05-10T13:57:17;2.50;;;1.97;;
7158;SDS011;63175;52.374;13.132;2023-05-10T13:59:44;5.03;;;2.10;;
7158;SDS011;63175;52.374;13.132;2023-05-10T14:02:10;2.20;;;2.10;;
7158;SDS011;63175;52.374;13.132;2023-05-10T14:04:38;5.07;;;2.33;;
7158;SDS011;63175;52.374;13.132;2023-05-10T14:07:05;1.83;;;1.73;;
7158;SDS011;63175;52.374;13.132;2023-05-10T14:09:32;2.10;;;1.97;;
7158;SDS011;63175;52.374;13.132;2023-05-10T14:12:00;2.77;;;2.57;;
7158;SDS011;63175;52.374;13.132;2023-05-10T14:14:27;2.03;;;1.93;;
7158;SDS011;63175;52.374;13.132;2023-05-10T14:16:54;3.10;;;2.80;;
7158;SDS011;63175;52.374;13.132;2023-05-10T14:19:21;2.93;;;2.70;;
7158;SDS011;63175;52.374;13.132;2023-05-10T14:21:48;4.37;;;2.27;;
7158;SDS011;63175;52.374;13.132;2023-05-10T14:24:14;2.77;;;2.50;;
7158;SDS011;63175;52.374;13.132;2023-05-10T14:26:41;2.50;;;2.40;;
7158;SDS011;63175;52.374;13.132;2023-05-10T14:29:10;5.73;;;2.20;;
7158;SDS011;63175;52.374;13.132;2023-05-10T14:31:36;2.60;;;1.97;;
7158;SDS011;63175;52.374;13.132;2023-05-10T14:34:03;2.30;;;2.10;;
7158;SDS011;63175;52.374;13.132;2023-05-10T14:36:30;2.20;;;2.00;;
7158;SDS011;63175;52.374;13.132;2023-05-10T14:38:57;2.30;;;1.53;;
7158;SDS011;63175;52.374;13.132;2023-05-10T14:41:24;2.10;;;2.00;;
7158;SDS011;63175;52.374;13.132;2023-05-10T14:43:51;1.90;;;1.80;;
7158;SDS011;63175;52.374;13.132;2023-05-10T14:46:19;3.67;;;1.60;;
7158;SDS011;63175;52.374;13.132;2023-05-10T14:48:46;2.47;;;2.10;;
7158;SDS011;63175;52.374;13.132;2023-05-10T14:51:13;3.43;;;2.07;;
7158;SDS011;63175;52.374;13.132;2023-05-10T14:53:40;3.10;;;2.20;;
7158;SDS011;63175;52.374;13.132;2023-05-10T14:56:07;2.20;;;1.73;;
7158;SDS011;63175;52.374;13.132;2023-05-10T14:58:34;2.13;;;2.03;;